sensor_id;sensor_type;location;lat;lon;timestamp;P1;durP1;ratioP1;P2;durP2;ratioP2
13238;SDS011;6686;51.292;4.166;2023-07-31T00:02:14;16.13;;;6.10;;
13238;SDS011;6686;51.292;4.166;2023-07-31T00:05:01;18.17;;;6.77;;
13238;SDS011;6686;51.292;4.166;2023-07-31T00:07:47;13.80;;;6.60;;
13238;SDS011;6686;51.292;4.166;2023-07-31T00:10:33;14.33;;;6.30;;
13238;SDS011;6686;51.292;4.166;2023-07-31T00:13:19;17.30;;;6.63;;
13238;SDS011;6686;51.292;4.166;2023-07-31T00:16:04;14.20;;;6.10;;
13238;SDS011;6686;51.292;4.166;2023-07-31T00:18:51;13.93;;;6.03;;
13238;SDS011;6686;51.292;4.166;2023-07-31T00:21:36;16.63;;;6.30;;
13238;SDS011;6686;51.292;4.166;2023-07-31T00:24:22;18.37;;;7.68;;
13238;SDS011;6686;51.292;4.166;2023-07-31T00:27:08;16.00;;;7.20;;
13238;SDS011;6686;51.292;4.166;2023-07-31T00:29:54;16.70;;;6.80;;
13238;SDS011;6686;51.292;4.166;2023-07-31T00:32:39;15.73;;;6.57;;
13238;SDS011;6686;51.292;4.166;2023-07-31T00:35:25;16.07;;;7.23;;
13238;SDS011;6686;51.292;4.166;2023-07-31T00:38:11;15.77;;;6.47;;
13238;SDS011;6686;51.292;4.166;2023-07-31T00:40:57;16.40;;;6.93;;
13238;SDS011;6686;51.292;4.166;2023-07-31T00:43:43;16.97;;;6.33;;
13238;SDS011;6686;51.292;4.166;2023-07-31T00:46:29;16.30;;;7.77;;
13238;SDS011;6686;51.292;4.166;2023-07-31T00:49:15;15.97;;;7.03;;
13238;SDS011;6686;51.292;4.166;2023-07-31T00:52:00;14.70;;;7.33;;
13238;SDS011;6686;51.292;4.166;2023-07-31T00:54:47;18.87;;;7.30;;
13238;SDS011;6686;51.292;4.166;2023-07-31T00:57:33;15.70;;;7.37;;
13238;SDS011;6686;51.292;4.166;2023-07-31T01:00:18;18.83;;;7.97;;
13238;SDS011;6686;51.292;4.166;2023-07-31T01:03:04;16.10;;;7.93;;
13238;SDS011;6686;51.292;4.166;2023-07-31T01:06:01;17.77;;;9.00;;
13238;SDS011;6686;51.292;4.166;2023-07-31T01:08:42;18.40;;;6.77;;
13238;SDS011;6686;51.292;4.166;2023-07-31T01:12:15;16.63;;;7.33;;
13238;SDS011;6686;51.292;4.166;2023-07-31T01:14:32;15.33;;;7.07;;
13238;SDS011;6686;51.292;4.166;2023-07-31T01:17:18;18.20;;;6.87;;
13238;SDS011;6686;51.292;4.166;2023-07-31T01:20:05;15.07;;;7.57;;
13238;SDS011;6686;51.292;4.166;2023-07-31T01:26:16;17.40;;;7.53;;
13238;SDS011;6686;51.292;4.166;2023-07-31T01:32:03;17.13;;;7.33;;
13238;SDS011;6686;51.292;4.166;2023-07-31T01:34:49;16.10;;;7.63;;
13238;SDS011;6686;51.292;4.166;2023-07-31T01:37:35;15.93;;;7.75;;
13238;SDS011;6686;51.292;4.166;2023-07-31T01:40:21;17.53;;;7.97;;
13238;SDS011;6686;51.292;4.166;2023-07-31T01:43:07;14.97;;;6.17;;
13238;SDS011;6686;51.292;4.166;2023-07-31T01:45:53;14.65;;;7.07;;
13238;SDS011;6686;51.292;4.166;2023-07-31T01:48:38;16.17;;;6.73;;
13238;SDS011;6686;51.292;4.166;2023-07-31T01:51:24;17.70;;;7.47;;
13238;SDS011;6686;51.292;4.166;2023-07-31T01:54:10;17.92;;;7.68;;
13238;SDS011;6686;51.292;4.166;2023-07-31T01:56:56;13.23;;;6.63;;
13238;SDS011;6686;51.292;4.166;2023-07-31T01:59:42;14.10;;;6.13;;
13238;SDS011;6686;51.292;4.166;2023-07-31T02:02:27;14.70;;;6.50;;
13238;SDS011;6686;51.292;4.166;2023-07-31T02:05:14;12.20;;;6.80;;
13238;SDS011;6686;51.292;4.166;2023-07-31T02:08:00;12.13;;;6.87;;
13238;SDS011;6686;51.292;4.166;2023-07-31T02:10:46;13.73;;;5.80;;
13238;SDS011;6686;51.292;4.166;2023-07-31T02:13:32;15.57;;;6.50;;
13238;SDS011;6686;51.292;4.166;2023-07-31T02:16:18;16.50;;;6.10;;
13238;SDS011;6686;51.292;4.166;2023-07-31T02:19:04;14.97;;;6.07;;
13238;SDS011;6686;51.292;4.166;2023-07-31T02:21:49;15.53;;;5.93;;
13238;SDS011;6686;51.292;4.166;2023-07-31T02:24:35;13.83;;;6.37;;
13238;SDS011;6686;51.292;4.166;2023-07-31T02:27:21;11.17;;;5.87;;
13238;SDS011;6686;51.292;4.166;2023-07-31T02:30:07;15.97;;;6.53;;
13238;SDS011;6686;51.292;4.166;2023-07-31T02:32:53;13.60;;;5.90;;
13238;SDS011;6686;51.292;4.166;2023-07-31T02:35:39;11.03;;;5.67;;
13238;SDS011;6686;51.292;4.166;2023-07-31T02:38:25;10.27;;;5.30;;
13238;SDS011;6686;51.292;4.166;2023-07-31T02:41:11;11.43;;;5.77;;
13238;SDS011;6686;51.292;4.166;2023-07-31T02:43:57;16.97;;;5.83;;
13238;SDS011;6686;51.292;4.166;2023-07-31T02:46:43;12.77;;;6.43;;
13238;SDS011;6686;51.292;4.166;2023-07-31T02:49:29;12.70;;;5.73;;
13238;SDS011;6686;51.292;4.166;2023-07-31T02:52:15;14.33;;;5.80;;
13238;SDS011;6686;51.292;4.166;2023-07-31T02:55:01;13.67;;;6.13;;
13238;SDS011;6686;51.292;4.166;2023-07-31T02:57:48;12.50;;;5.83;;
13238;SDS011;6686;51.292;4.166;2023-07-31T03:00:34;12.47;;;6.20;;
13238;SDS011;6686;51.292;4.166;2023-07-31T03:03:20;11.57;;;5.90;;
13238;SDS011;6686;51.292;4.166;2023-07-31T03:06:06;16.73;;;5.60;;
13238;SDS011;6686;51.292;4.166;2023-07-31T03:08:52;11.82;;;6.35;;
13238;SDS011;6686;51.292;4.166;2023-07-31T03:11:38;12.27;;;5.57;;
13238;SDS011;6686;51.292;4.166;2023-07-31T03:14:24;13.47;;;5.37;;
13238;SDS011;6686;51.292;4.166;2023-07-31T03:17:10;10.63;;;6.25;;
13238;SDS011;6686;51.292;4.166;2023-07-31T03:19:56;14.83;;;5.53;;
13238;SDS011;6686;51.292;4.166;2023-07-31T03:22:42;12.45;;;5.78;;
13238;SDS011;6686;51.292;4.166;2023-07-31T03:25:28;13.93;;;5.40;;
13238;SDS011;6686;51.292;4.166;2023-07-31T03:28:14;10.30;;;5.13;;
13238;SDS011;6686;51.292;4.166;2023-07-31T03:31:00;13.57;;;5.53;;
13238;SDS011;6686;51.292;4.166;2023-07-31T03:33:46;12.87;;;5.03;;
13238;SDS011;6686;51.292;4.166;2023-07-31T03:36:31;12.57;;;4.90;;
13238;SDS011;6686;51.292;4.166;2023-07-31T03:39:17;14.73;;;5.03;;
13238;SDS011;6686;51.292;4.166;2023-07-31T03:42:03;12.30;;;5.57;;
13238;SDS011;6686;51.292;4.166;2023-07-31T03:44:49;13.00;;;5.33;;
13238;SDS011;6686;51.292;4.166;2023-07-31T03:47:35;11.30;;;5.13;;
13238;SDS011;6686;51.292;4.166;2023-07-31T03:50:20;12.93;;;5.73;;
13238;SDS011;6686;51.292;4.166;2023-07-31T03:53:06;10.43;;;4.97;;
13238;SDS011;6686;51.292;4.166;2023-07-31T03:55:52;13.07;;;5.30;;
13238;SDS011;6686;51.292;4.166;2023-07-31T03:58:38;13.57;;;6.37;;
13238;SDS011;6686;51.292;4.166;2023-07-31T04:01:24;12.93;;;5.93;;
13238;SDS011;6686;51.292;4.166;2023-07-31T04:04:10;11.37;;;6.27;;
13238;SDS011;6686;51.292;4.166;2023-07-31T04:06:56;11.73;;;5.37;;
13238;SDS011;6686;51.292;4.166;2023-07-31T04:09:41;15.27;;;5.40;;
13238;SDS011;6686;51.292;4.166;2023-07-31T04:12:27;12.07;;;5.63;;
13238;SDS011;6686;51.292;4.166;2023-07-31T04:15:13;10.73;;;5.77;;
13238;SDS011;6686;51.292;4.166;2023-07-31T04:17:59;12.15;;;6.32;;
13238;SDS011;6686;51.292;4.166;2023-07-31T04:20:45;12.48;;;6.90;;
13238;SDS011;6686;51.292;4.166;2023-07-31T04:23:30;12.63;;;5.77;;
13238;SDS011;6686;51.292;4.166;2023-07-31T04:26:17;12.83;;;5.80;;
13238;SDS011;6686;51.292;4.166;2023-07-31T04:29:03;13.30;;;6.70;;
13238;SDS011;6686;51.292;4.166;2023-07-31T04:31:49;12.67;;;5.87;;
13238;SDS011;6686;51.292;4.166;2023-07-31T04:34:35;11.97;;;5.93;;
13238;SDS011;6686;51.292;4.166;2023-07-31T04:37:22;11.00;;;5.57;;
13238;SDS011;6686;51.292;4.166;2023-07-31T04:40:08;16.40;;;6.37;;
13238;SDS011;6686;51.292;4.166;2023-07-31T04:42:54;13.43;;;6.30;;
13238;SDS011;6686;51.292;4.166;2023-07-31T04:45:42;10.83;;;5.90;;
13238;SDS011;6686;51.292;4.166;2023-07-31T04:48:26;12.85;;;6.62;;
13238;SDS011;6686;51.292;4.166;2023-07-31T04:51:12;13.17;;;6.40;;
13238;SDS011;6686;51.292;4.166;2023-07-31T04:53:57;12.93;;;6.57;;
13238;SDS011;6686;51.292;4.166;2023-07-31T04:56:43;12.98;;;7.37;;
13238;SDS011;6686;51.292;4.166;2023-07-31T04:59:29;15.83;;;6.63;;
13238;SDS011;6686;51.292;4.166;2023-07-31T05:02:15;10.13;;;6.10;;
13238;SDS011;6686;51.292;4.166;2023-07-31T05:05:01;12.20;;;6.43;;
13238;SDS011;6686;51.292;4.166;2023-07-31T05:07:46;13.13;;;6.93;;
13238;SDS011;6686;51.292;4.166;2023-07-31T05:10:32;13.67;;;5.70;;
13238;SDS011;6686;51.292;4.166;2023-07-31T05:13:18;12.43;;;6.00;;
13238;SDS011;6686;51.292;4.166;2023-07-31T05:16:04;11.82;;;6.40;;
13238;SDS011;6686;51.292;4.166;2023-07-31T05:18:50;10.33;;;5.70;;
13238;SDS011;6686;51.292;4.166;2023-07-31T05:21:36;13.90;;;5.53;;
13238;SDS011;6686;51.292;4.166;2023-07-31T05:24:22;10.27;;;5.13;;
13238;SDS011;6686;51.292;4.166;2023-07-31T05:27:08;11.30;;;5.43;;
13238;SDS011;6686;51.292;4.166;2023-07-31T05:29:54;7.50;;;5.00;;
13238;SDS011;6686;51.292;4.166;2023-07-31T05:32:40;8.17;;;5.30;;
13238;SDS011;6686;51.292;4.166;2023-07-31T05:35:25;9.90;;;5.57;;
13238;SDS011;6686;51.292;4.166;2023-07-31T05:38:11;7.67;;;5.37;;
13238;SDS011;6686;51.292;4.166;2023-07-31T05:40:57;8.93;;;4.87;;
13238;SDS011;6686;51.292;4.166;2023-07-31T05:43:43;7.97;;;4.43;;
13238;SDS011;6686;51.292;4.166;2023-07-31T05:46:29;9.90;;;4.83;;
13238;SDS011;6686;51.292;4.166;2023-07-31T05:49:15;6.87;;;4.70;;
13238;SDS011;6686;51.292;4.166;2023-07-31T05:52:01;7.50;;;4.23;;
13238;SDS011;6686;51.292;4.166;2023-07-31T05:54:47;8.03;;;4.50;;
13238;SDS011;6686;51.292;4.166;2023-07-31T05:57:33;7.80;;;4.70;;
13238;SDS011;6686;51.292;4.166;2023-07-31T06:00:19;7.50;;;5.00;;
13238;SDS011;6686;51.292;4.166;2023-07-31T06:03:05;8.23;;;4.87;;
13238;SDS011;6686;51.292;4.166;2023-07-31T06:05:51;8.90;;;5.03;;
13238;SDS011;6686;51.292;4.166;2023-07-31T06:08:37;6.77;;;4.80;;
13238;SDS011;6686;51.292;4.166;2023-07-31T06:11:23;8.47;;;5.17;;
13238;SDS011;6686;51.292;4.166;2023-07-31T06:14:09;8.63;;;5.00;;
13238;SDS011;6686;51.292;4.166;2023-07-31T06:16:54;8.73;;;5.27;;
13238;SDS011;6686;51.292;4.166;2023-07-31T06:19:40;8.90;;;5.17;;
13238;SDS011;6686;51.292;4.166;2023-07-31T06:22:26;8.17;;;5.87;;
13238;SDS011;6686;51.292;4.166;2023-07-31T06:25:12;9.00;;;5.60;;
13238;SDS011;6686;51.292;4.166;2023-07-31T06:27:58;7.63;;;5.20;;
13238;SDS011;6686;51.292;4.166;2023-07-31T06:30:44;9.27;;;6.03;;
13238;SDS011;6686;51.292;4.166;2023-07-31T06:33:30;7.23;;;6.17;;
13238;SDS011;6686;51.292;4.166;2023-07-31T06:36:16;10.63;;;6.50;;
13238;SDS011;6686;51.292;4.166;2023-07-31T06:39:01;10.40;;;6.50;;
13238;SDS011;6686;51.292;4.166;2023-07-31T06:41:47;10.50;;;6.95;;
13238;SDS011;6686;51.292;4.166;2023-07-31T06:44:33;11.33;;;6.40;;
13238;SDS011;6686;51.292;4.166;2023-07-31T06:47:19;8.13;;;5.77;;
13238;SDS011;6686;51.292;4.166;2023-07-31T06:50:06;9.37;;;5.27;;
13238;SDS011;6686;51.292;4.166;2023-07-31T06:52:52;9.87;;;6.10;;
13238;SDS011;6686;51.292;4.166;2023-07-31T06:55:38;8.77;;;6.23;;
13238;SDS011;6686;51.292;4.166;2023-07-31T06:58:24;8.87;;;5.67;;
13238;SDS011;6686;51.292;4.166;2023-07-31T07:01:10;11.97;;;6.20;;
13238;SDS011;6686;51.292;4.166;2023-07-31T07:03:56;10.57;;;6.37;;
13238;SDS011;6686;51.292;4.166;2023-07-31T07:06:42;8.23;;;5.57;;
13238;SDS011;6686;51.292;4.166;2023-07-31T07:09:28;10.63;;;7.15;;
13238;SDS011;6686;51.292;4.166;2023-07-31T07:12:15;7.90;;;5.70;;
13238;SDS011;6686;51.292;4.166;2023-07-31T07:15:01;8.93;;;5.67;;
13238;SDS011;6686;51.292;4.166;2023-07-31T07:17:47;10.70;;;6.40;;
13238;SDS011;6686;51.292;4.166;2023-07-31T07:20:33;10.48;;;6.40;;
13238;SDS011;6686;51.292;4.166;2023-07-31T07:23:19;10.88;;;6.35;;
13238;SDS011;6686;51.292;4.166;2023-07-31T07:26:05;11.03;;;6.60;;
13238;SDS011;6686;51.292;4.166;2023-07-31T07:28:51;13.17;;;6.10;;
13238;SDS011;6686;51.292;4.166;2023-07-31T07:31:36;9.00;;;5.50;;
13238;SDS011;6686;51.292;4.166;2023-07-31T07:34:25;10.87;;;4.70;;
13238;SDS011;6686;51.292;4.166;2023-07-31T07:37:09;9.93;;;5.43;;
13238;SDS011;6686;51.292;4.166;2023-07-31T07:39:55;9.07;;;5.70;;
13238;SDS011;6686;51.292;4.166;2023-07-31T07:42:41;8.70;;;5.40;;
13238;SDS011;6686;51.292;4.166;2023-07-31T07:45:27;9.00;;;5.30;;
13238;SDS011;6686;51.292;4.166;2023-07-31T07:48:13;8.87;;;5.03;;
13238;SDS011;6686;51.292;4.166;2023-07-31T07:50:59;9.77;;;5.10;;
13238;SDS011;6686;51.292;4.166;2023-07-31T07:53:45;7.80;;;4.60;;
13238;SDS011;6686;51.292;4.166;2023-07-31T07:56:32;7.77;;;5.13;;
13238;SDS011;6686;51.292;4.166;2023-07-31T07:59:17;9.30;;;4.47;;
13238;SDS011;6686;51.292;4.166;2023-07-31T08:02:03;7.90;;;4.63;;
13238;SDS011;6686;51.292;4.166;2023-07-31T08:04:48;8.07;;;4.13;;
13238;SDS011;6686;51.292;4.166;2023-07-31T08:07:34;8.47;;;4.57;;
13238;SDS011;6686;51.292;4.166;2023-07-31T08:10:20;7.47;;;3.97;;
13238;SDS011;6686;51.292;4.166;2023-07-31T08:13:07;6.97;;;4.70;;
13238;SDS011;6686;51.292;4.166;2023-07-31T08:15:53;6.63;;;3.90;;
13238;SDS011;6686;51.292;4.166;2023-07-31T08:18:39;4.57;;;3.30;;
13238;SDS011;6686;51.292;4.166;2023-07-31T08:21:24;6.25;;;4.20;;
13238;SDS011;6686;51.292;4.166;2023-07-31T08:24:10;6.30;;;3.57;;
13238;SDS011;6686;51.292;4.166;2023-07-31T08:26:56;4.60;;;3.13;;
13238;SDS011;6686;51.292;4.166;2023-07-31T08:29:42;6.63;;;4.00;;
13238;SDS011;6686;51.292;4.166;2023-07-31T08:32:28;6.30;;;3.70;;
13238;SDS011;6686;51.292;4.166;2023-07-31T08:35:13;5.67;;;4.00;;
13238;SDS011;6686;51.292;4.166;2023-07-31T08:37:59;6.33;;;3.77;;
13238;SDS011;6686;51.292;4.166;2023-07-31T08:40:45;6.03;;;3.73;;
13238;SDS011;6686;51.292;4.166;2023-07-31T08:43:31;4.47;;;3.60;;
13238;SDS011;6686;51.292;4.166;2023-07-31T08:46:17;9.20;;;3.73;;
13238;SDS011;6686;51.292;4.166;2023-07-31T08:49:03;4.73;;;3.50;;
13238;SDS011;6686;51.292;4.166;2023-07-31T08:51:52;5.17;;;3.30;;
13238;SDS011;6686;51.292;4.166;2023-07-31T08:54:38;4.73;;;3.33;;
13238;SDS011;6686;51.292;4.166;2023-07-31T08:57:24;6.47;;;3.33;;
13238;SDS011;6686;51.292;4.166;2023-07-31T09:00:10;4.00;;;3.27;;
13238;SDS011;6686;51.292;4.166;2023-07-31T09:05:45;6.60;;;3.43;;
13238;SDS011;6686;51.292;4.166;2023-07-31T09:08:31;5.77;;;3.80;;
13238;SDS011;6686;51.292;4.166;2023-07-31T09:11:17;5.03;;;3.40;;
13238;SDS011;6686;51.292;4.166;2023-07-31T09:14:03;11.37;;;4.03;;
13238;SDS011;6686;51.292;4.166;2023-07-31T09:16:52;8.07;;;3.73;;
13238;SDS011;6686;51.292;4.166;2023-07-31T09:19:41;6.20;;;3.30;;
13238;SDS011;6686;51.292;4.166;2023-07-31T09:22:33;6.53;;;3.97;;
13238;SDS011;6686;51.292;4.166;2023-07-31T09:28:09;3.67;;;3.30;;
13238;SDS011;6686;51.292;4.166;2023-07-31T09:30:54;3.97;;;3.23;;
13238;SDS011;6686;51.292;4.166;2023-07-31T09:33:54;6.40;;;3.43;;
13238;SDS011;6686;51.292;4.166;2023-07-31T09:36:28;5.10;;;3.40;;
13238;SDS011;6686;51.292;4.166;2023-07-31T09:39:11;3.93;;;2.77;;
13238;SDS011;6686;51.292;4.166;2023-07-31T09:41:57;5.53;;;3.27;;
13238;SDS011;6686;51.292;4.166;2023-07-31T09:44:43;5.07;;;3.60;;
13238;SDS011;6686;51.292;4.166;2023-07-31T09:47:29;5.03;;;2.83;;
13238;SDS011;6686;51.292;4.166;2023-07-31T09:50:15;4.70;;;3.10;;
13238;SDS011;6686;51.292;4.166;2023-07-31T09:53:03;4.03;;;2.67;;
13238;SDS011;6686;51.292;4.166;2023-07-31T09:55:49;3.80;;;2.80;;
13238;SDS011;6686;51.292;4.166;2023-07-31T09:58:34;4.23;;;2.90;;
13238;SDS011;6686;51.292;4.166;2023-07-31T10:01:20;2.60;;;2.40;;
13238;SDS011;6686;51.292;4.166;2023-07-31T10:04:06;2.90;;;2.60;;
13238;SDS011;6686;51.292;4.166;2023-07-31T10:06:52;4.60;;;2.90;;
13238;SDS011;6686;51.292;4.166;2023-07-31T10:09:37;5.37;;;3.10;;
13238;SDS011;6686;51.292;4.166;2023-07-31T10:12:23;2.97;;;2.67;;
13238;SDS011;6686;51.292;4.166;2023-07-31T10:15:09;4.37;;;2.83;;
13238;SDS011;6686;51.292;4.166;2023-07-31T10:17:55;5.53;;;3.10;;
13238;SDS011;6686;51.292;4.166;2023-07-31T10:20:41;6.07;;;3.43;;
13238;SDS011;6686;51.292;4.166;2023-07-31T10:23:27;5.10;;;3.60;;
13238;SDS011;6686;51.292;4.166;2023-07-31T10:26:13;5.07;;;3.77;;
13238;SDS011;6686;51.292;4.166;2023-07-31T10:28:59;5.03;;;3.67;;
13238;SDS011;6686;51.292;4.166;2023-07-31T10:31:45;5.30;;;3.57;;
13238;SDS011;6686;51.292;4.166;2023-07-31T10:34:31;3.73;;;3.00;;
13238;SDS011;6686;51.292;4.166;2023-07-31T10:37:31;6.07;;;3.23;;
13238;SDS011;6686;51.292;4.166;2023-07-31T10:40:16;2.90;;;2.60;;
13238;SDS011;6686;51.292;4.166;2023-07-31T10:43:01;3.87;;;3.33;;
13238;SDS011;6686;51.292;4.166;2023-07-31T10:45:48;4.00;;;3.57;;
13238;SDS011;6686;51.292;4.166;2023-07-31T10:48:34;5.82;;;4.00;;
13238;SDS011;6686;51.292;4.166;2023-07-31T10:51:20;5.53;;;3.90;;
13238;SDS011;6686;51.292;4.166;2023-07-31T10:54:12;9.37;;;4.70;;
13238;SDS011;6686;51.292;4.166;2023-07-31T10:56:58;7.17;;;4.60;;
13238;SDS011;6686;51.292;4.166;2023-07-31T10:59:43;7.93;;;4.73;;
13238;SDS011;6686;51.292;4.166;2023-07-31T11:02:29;7.70;;;4.87;;
13238;SDS011;6686;51.292;4.166;2023-07-31T11:05:16;9.17;;;5.10;;
13238;SDS011;6686;51.292;4.166;2023-07-31T11:08:09;6.43;;;4.80;;
13238;SDS011;6686;51.292;4.166;2023-07-31T11:11:23;7.80;;;4.50;;
13238;SDS011;6686;51.292;4.166;2023-07-31T11:13:53;5.83;;;5.10;;
13238;SDS011;6686;51.292;4.166;2023-07-31T11:16:38;8.17;;;5.40;;
13238;SDS011;6686;51.292;4.166;2023-07-31T11:19:25;6.43;;;5.00;;
13238;SDS011;6686;51.292;4.166;2023-07-31T11:22:11;7.53;;;4.87;;
13238;SDS011;6686;51.292;4.166;2023-07-31T11:25:00;8.00;;;5.73;;
13238;SDS011;6686;51.292;4.166;2023-07-31T11:27:45;6.70;;;5.07;;
13238;SDS011;6686;51.292;4.166;2023-07-31T11:30:31;6.43;;;5.13;;
13238;SDS011;6686;51.292;4.166;2023-07-31T11:33:17;6.93;;;5.20;;
13238;SDS011;6686;51.292;4.166;2023-07-31T11:36:03;9.87;;;6.47;;
13238;SDS011;6686;51.292;4.166;2023-07-31T11:38:49;9.17;;;5.77;;
13238;SDS011;6686;51.292;4.166;2023-07-31T11:41:35;8.37;;;5.80;;
13238;SDS011;6686;51.292;4.166;2023-07-31T11:44:21;9.93;;;5.80;;
13238;SDS011;6686;51.292;4.166;2023-07-31T11:47:07;9.10;;;5.50;;
13238;SDS011;6686;51.292;4.166;2023-07-31T11:49:56;8.13;;;5.30;;
13238;SDS011;6686;51.292;4.166;2023-07-31T11:52:43;8.47;;;5.87;;
13238;SDS011;6686;51.292;4.166;2023-07-31T11:55:28;7.43;;;5.17;;
13238;SDS011;6686;51.292;4.166;2023-07-31T11:58:15;9.63;;;5.70;;
13238;SDS011;6686;51.292;4.166;2023-07-31T12:01:01;8.93;;;5.80;;
13238;SDS011;6686;51.292;4.166;2023-07-31T12:03:47;7.90;;;5.20;;
13238;SDS011;6686;51.292;4.166;2023-07-31T12:06:33;9.10;;;5.83;;
13238;SDS011;6686;51.292;4.166;2023-07-31T12:09:18;8.80;;;5.83;;
13238;SDS011;6686;51.292;4.166;2023-07-31T12:12:08;9.63;;;5.60;;
13238;SDS011;6686;51.292;4.166;2023-07-31T12:14:56;7.57;;;5.73;;
13238;SDS011;6686;51.292;4.166;2023-07-31T12:17:42;8.57;;;5.73;;
13238;SDS011;6686;51.292;4.166;2023-07-31T12:20:28;8.03;;;5.73;;
13238;SDS011;6686;51.292;4.166;2023-07-31T12:23:15;6.20;;;4.93;;
13238;SDS011;6686;51.292;4.166;2023-07-31T12:26:06;7.53;;;5.20;;
13238;SDS011;6686;51.292;4.166;2023-07-31T12:28:54;6.77;;;4.73;;
13238;SDS011;6686;51.292;4.166;2023-07-31T12:31:38;6.50;;;5.40;;
13238;SDS011;6686;51.292;4.166;2023-07-31T12:34:23;12.03;;;5.77;;
13238;SDS011;6686;51.292;4.166;2023-07-31T12:37:09;8.97;;;5.57;;
13238;SDS011;6686;51.292;4.166;2023-07-31T12:39:55;11.07;;;6.60;;
13238;SDS011;6686;51.292;4.166;2023-07-31T12:42:47;9.33;;;6.40;;
13238;SDS011;6686;51.292;4.166;2023-07-31T12:45:32;8.33;;;5.93;;
13238;SDS011;6686;51.292;4.166;2023-07-31T12:48:18;10.70;;;6.43;;
13238;SDS011;6686;51.292;4.166;2023-07-31T12:51:04;8.57;;;6.17;;
13238;SDS011;6686;51.292;4.166;2023-07-31T12:53:50;10.88;;;7.57;;
13238;SDS011;6686;51.292;4.166;2023-07-31T12:56:36;9.95;;;7.30;;
13238;SDS011;6686;51.292;4.166;2023-07-31T12:59:22;10.10;;;6.50;;
13238;SDS011;6686;51.292;4.166;2023-07-31T13:02:08;12.20;;;8.23;;
13238;SDS011;6686;51.292;4.166;2023-07-31T13:04:54;10.37;;;6.63;;
13238;SDS011;6686;51.292;4.166;2023-07-31T13:07:40;12.73;;;7.30;;
13238;SDS011;6686;51.292;4.166;2023-07-31T13:10:26;10.73;;;7.60;;
13238;SDS011;6686;51.292;4.166;2023-07-31T13:13:12;11.00;;;7.27;;
13238;SDS011;6686;51.292;4.166;2023-07-31T13:15:58;9.93;;;7.03;;
13238;SDS011;6686;51.292;4.166;2023-07-31T13:18:44;9.90;;;7.20;;
13238;SDS011;6686;51.292;4.166;2023-07-31T13:21:30;9.67;;;7.00;;
13238;SDS011;6686;51.292;4.166;2023-07-31T13:24:16;10.63;;;6.97;;
13238;SDS011;6686;51.292;4.166;2023-07-31T13:27:02;8.43;;;7.37;;
13238;SDS011;6686;51.292;4.166;2023-07-31T13:29:48;9.10;;;6.57;;
13238;SDS011;6686;51.292;4.166;2023-07-31T13:32:35;9.83;;;6.50;;
13238;SDS011;6686;51.292;4.166;2023-07-31T13:35:21;8.10;;;5.77;;
13238;SDS011;6686;51.292;4.166;2023-07-31T13:38:07;6.13;;;4.80;;
13238;SDS011;6686;51.292;4.166;2023-07-31T13:40:53;7.10;;;5.23;;
13238;SDS011;6686;51.292;4.166;2023-07-31T13:43:39;8.67;;;5.23;;
13238;SDS011;6686;51.292;4.166;2023-07-31T13:46:25;6.40;;;4.63;;
13238;SDS011;6686;51.292;4.166;2023-07-31T13:49:11;5.17;;;4.20;;
13238;SDS011;6686;51.292;4.166;2023-07-31T13:51:57;4.37;;;3.67;;
13238;SDS011;6686;51.292;4.166;2023-07-31T13:54:42;5.70;;;3.47;;
13238;SDS011;6686;51.292;4.166;2023-07-31T13:57:28;4.40;;;3.30;;
13238;SDS011;6686;51.292;4.166;2023-07-31T14:00:14;5.55;;;3.67;;
13238;SDS011;6686;51.292;4.166;2023-07-31T14:03:00;5.87;;;3.47;;
13238;SDS011;6686;51.292;4.166;2023-07-31T14:05:46;4.27;;;3.13;;
13238;SDS011;6686;51.292;4.166;2023-07-31T14:08:32;3.60;;;3.20;;
13238;SDS011;6686;51.292;4.166;2023-07-31T14:11:19;3.43;;;2.57;;
13238;SDS011;6686;51.292;4.166;2023-07-31T14:14:04;3.63;;;2.03;;
13238;SDS011;6686;51.292;4.166;2023-07-31T14:16:52;4.17;;;2.30;;
13238;SDS011;6686;51.292;4.166;2023-07-31T14:19:38;2.53;;;2.23;;
13238;SDS011;6686;51.292;4.166;2023-07-31T14:22:28;2.37;;;2.10;;
13238;SDS011;6686;51.292;4.166;2023-07-31T14:25:19;2.50;;;2.30;;
13238;SDS011;6686;51.292;4.166;2023-07-31T14:28:02;3.57;;;2.50;;
13238;SDS011;6686;51.292;4.166;2023-07-31T14:30:47;2.40;;;2.20;;
13238;SDS011;6686;51.292;4.166;2023-07-31T14:33:34;3.10;;;2.80;;
13238;SDS011;6686;51.292;4.166;2023-07-31T14:36:19;3.67;;;3.27;;
13238;SDS011;6686;51.292;4.166;2023-07-31T14:39:05;3.27;;;2.90;;
13238;SDS011;6686;51.292;4.166;2023-07-31T14:41:51;3.97;;;2.73;;
13238;SDS011;6686;51.292;4.166;2023-07-31T14:44:37;4.32;;;3.28;;
13238;SDS011;6686;51.292;4.166;2023-07-31T14:47:22;3.97;;;3.00;;
13238;SDS011;6686;51.292;4.166;2023-07-31T14:50:08;3.63;;;3.00;;
13238;SDS011;6686;51.292;4.166;2023-07-31T14:52:57;4.30;;;2.50;;
13238;SDS011;6686;51.292;4.166;2023-07-31T14:55:43;3.37;;;2.90;;
13238;SDS011;6686;51.292;4.166;2023-07-31T14:58:29;3.97;;;3.00;;
13238;SDS011;6686;51.292;4.166;2023-07-31T15:01:21;3.30;;;3.00;;
13238;SDS011;6686;51.292;4.166;2023-07-31T15:04:07;4.00;;;2.90;;
13238;SDS011;6686;51.292;4.166;2023-07-31T15:06:53;4.10;;;3.30;;
13238;SDS011;6686;51.292;4.166;2023-07-31T15:09:39;3.73;;;2.83;;
13238;SDS011;6686;51.292;4.166;2023-07-31T15:12:25;3.23;;;2.50;;
13238;SDS011;6686;51.292;4.166;2023-07-31T15:15:11;4.73;;;2.80;;
13238;SDS011;6686;51.292;4.166;2023-07-31T15:17:57;3.20;;;2.67;;
13238;SDS011;6686;51.292;4.166;2023-07-31T15:20:42;2.57;;;2.30;;
13238;SDS011;6686;51.292;4.166;2023-07-31T15:23:29;3.97;;;2.57;;
13238;SDS011;6686;51.292;4.166;2023-07-31T15:26:14;3.13;;;2.23;;
13238;SDS011;6686;51.292;4.166;2023-07-31T15:29:01;4.33;;;2.67;;
13238;SDS011;6686;51.292;4.166;2023-07-31T15:31:47;4.73;;;3.00;;
13238;SDS011;6686;51.292;4.166;2023-07-31T15:34:32;3.73;;;3.20;;
13238;SDS011;6686;51.292;4.166;2023-07-31T15:37:18;3.07;;;2.50;;
13238;SDS011;6686;51.292;4.166;2023-07-31T15:40:04;3.30;;;2.77;;
13238;SDS011;6686;51.292;4.166;2023-07-31T15:42:50;3.70;;;2.70;;
13238;SDS011;6686;51.292;4.166;2023-07-31T15:45:37;3.33;;;2.73;;
13238;SDS011;6686;51.292;4.166;2023-07-31T15:48:23;2.67;;;2.47;;
13238;SDS011;6686;51.292;4.166;2023-07-31T15:51:09;3.17;;;2.80;;
13238;SDS011;6686;51.292;4.166;2023-07-31T15:53:55;3.70;;;2.50;;
13238;SDS011;6686;51.292;4.166;2023-07-31T15:56:41;2.73;;;2.50;;
13238;SDS011;6686;51.292;4.166;2023-07-31T15:59:27;2.90;;;2.60;;
13238;SDS011;6686;51.292;4.166;2023-07-31T16:02:13;3.13;;;2.70;;
13238;SDS011;6686;51.292;4.166;2023-07-31T16:04:58;2.43;;;2.23;;
13238;SDS011;6686;51.292;4.166;2023-07-31T16:07:44;3.73;;;2.53;;
13238;SDS011;6686;51.292;4.166;2023-07-31T16:10:30;3.33;;;2.40;;
13238;SDS011;6686;51.292;4.166;2023-07-31T16:13:16;3.17;;;2.87;;
13238;SDS011;6686;51.292;4.166;2023-07-31T16:16:02;3.20;;;2.90;;
13238;SDS011;6686;51.292;4.166;2023-07-31T16:18:47;3.43;;;2.97;;
13238;SDS011;6686;51.292;4.166;2023-07-31T16:21:34;3.53;;;3.23;;
13238;SDS011;6686;51.292;4.166;2023-07-31T16:24:19;4.87;;;3.30;;
13238;SDS011;6686;51.292;4.166;2023-07-31T16:27:06;3.30;;;3.00;;
13238;SDS011;6686;51.292;4.166;2023-07-31T16:29:52;3.62;;;3.33;;
13238;SDS011;6686;51.292;4.166;2023-07-31T16:32:37;3.40;;;3.10;;
13238;SDS011;6686;51.292;4.166;2023-07-31T16:35:23;3.17;;;2.87;;
13238;SDS011;6686;51.292;4.166;2023-07-31T16:38:09;3.60;;;3.30;;
13238;SDS011;6686;51.292;4.166;2023-07-31T16:40:55;2.90;;;2.70;;
13238;SDS011;6686;51.292;4.166;2023-07-31T16:43:42;3.07;;;2.77;;
13238;SDS011;6686;51.292;4.166;2023-07-31T16:46:28;4.17;;;3.07;;
13238;SDS011;6686;51.292;4.166;2023-07-31T16:49:14;4.33;;;3.23;;
13238;SDS011;6686;51.292;4.166;2023-07-31T16:52:00;3.97;;;3.20;;
13238;SDS011;6686;51.292;4.166;2023-07-31T16:54:46;3.67;;;2.70;;
13238;SDS011;6686;51.292;4.166;2023-07-31T16:57:31;2.60;;;2.23;;
13238;SDS011;6686;51.292;4.166;2023-07-31T17:00:17;2.53;;;2.20;;
13238;SDS011;6686;51.292;4.166;2023-07-31T17:03:03;2.23;;;2.03;;